Terminal Aerodrome Forecast
Issued by NWS Wilmington, OH

Current Version | Previous Version | Graphics & Text | Print | Product List | Glossary On
Versions: 1 2 3 4 5 6 7 8 9 10 11 12 13 14 15 16 17 18
000
FTUS41 KILN 271124
TAFDAY
TAF
KDAY 271124Z 2712/2812 VRB02KT P6SM BKN050
     FM271400 03005KT P6SM BKN050
     FM272100 06005KT P6SM SCT050
     FM280000 09004KT P6SM SKC
     FM280900 09003KT 5SM BR SKC=

USA.gov is the U.S. government's official web portal to all federal, state and local government web resources and services.